Culbertson, NE (69024)

1:38 AM CDT on July 28, 2014 (GMT -0500)
KNEMCCOO2 Elev 2609 ft | 40.21 °N, 100.64 °W | Change Station

Current weather conditions updated 7 minutes ago

Clear
Clear
71.2 °F
Feels Like 76 °F
N
0.0
Wind Variable Wind from ENE
Gusts 0.0 mph

Today is forecast to be nearly the same temperature as yesterday.

Today
High -- | Low -- °F
--% Chance of Precip.
Yesterday
High -- | Low -- °F
Precip. -- in
6:37 AM 9:01 PM
New Moon, 2% visible
Pressure 30.20 in
Visibility 10.0 miles
Clouds Clear
Heat Index 76 °F
Dew Point 55 °F
Humidity 57%
Rainfall 0.00 in
Snow Depth Not available.
UV 0 out of 12
Pollen 7.90 out of 12
Air Quality Not available.
Flu Activity Not available.
METAR KMCK 280553Z AUTO 00000KT 10SM CLR 18/12 A3027 RMK AO2 SLP227 T01830117 10317 20178 403280161 51010

More Conditions Fewer Conditions

Pressure 30.20 in
Visibility 10.0 miles
Clouds Clear
Heat Index 76 °F
Dew Point 55 °F
Humidity 57%
Rainfall 0.00 in
Snow Depth Not available.
UV 0 out of 12
Pollen 7.90 out of 12
Air Quality Not available.
Flu Activity Not available.
METAR KMCK 280553Z AUTO 00000KT 10SM CLR 18/12 A3027 RMK AO2 SLP227 T01830117 10317 20178 403280161 51010

More Conditions Fewer Conditions

10-Day Weather Forecast

Almanac

Astronomy

Jul. 28, 2014 Rise Set
Actual Time 6:37 AM CDT 9:01 PM CDT
Civil Twilight 6:06 AM CDT 9:32 PM CDT
Nautical Twilight 5:28 AM CDT 10:10 PM CDT
Astronomical Twilight 4:46 AM CDT 10:52 PM CDT
Moon 8:21 AM CDT 9:44 PM CDT
Length of Visible Light 15h 25m
Length of Day
14h 24m
Tomorrow will be 1m 54s shorter.
New Moon, 2% of the Moon is Illuminated
Today
New Moon
Aug 3
First Quarter
Aug 10
Full
Aug 17
Last Quarter
Aug 25
New

Today's Extremes

State Highs State Lows

Community

WunderPhotos

Upload Photos

1,738,289 photos uploaded!

Nearby

Snow Depth

Station Depth Elevation
No new snow has been reported.

Earthquake Activity

City Distance Mag. Time & Date
No recent earthquake activity has been reported nearby.
Minimum magnitude displayed is 2.5.

Coastal Water Temperatures

Place Temperature
No Stations Reporting

Nearby Weather Stations

Station Location Temp. Heat Index Dew Point Humidity Wind Precip. Elev Updated Type
McCook, NE 71.2 °F 76 °F 55 °F 57% ENE  at  0.0 mph 0.00 in / hr 2609 ft 1:30 AM CDT Normal
5 North, 1.5 West, Trenton, NE 66.0 °F - 52 °F 59% SE  at  5.0 mph 0.00 in / hr 2969 ft 1:33 AM CDT Normal
Palisade, Palisade, NE 65.7 °F - 56 °F 71% South  at  0.0 mph 0.00 in / hr 2768 ft 1:38 AM CDT Rapid Fire
HADS RED WILLOW CREEK NEAR INDIANOLA NE, Indianola, NE 65 °F - - - North  at  - 0.00 in / hr 2398 ft 12:30 AM CDT MADIS
Kastens Farms, Herndon, KS 67.0 °F - 53 °F 62% ESE  at  0.0 mph 0.00 in / hr 2967 ft 1:36 AM CDT Normal
HAYES CENTER, HAYES CENTER, NE 65.3 °F - 50 °F 59% ENE  at  4.0 mph 0.00 in / hr 3035 ft 1:32 AM CDT Normal

Show More Stations Show Fewer Stations